Bei Facebook empfehlenBei Twitter postenGoogle plusPinterest

Das Wetter im Erzgebirge am 29.04.2017

Wetter und Klima am 29.04.2017 Holzhau im Erzgebirge (630m ü.NN)
Letzte gemessene Temperatur und Uhrzeit der Messung23:45:00 Uhr2.10 °C
Temperatur (Maximum / Höchstwert) und Uhrzeit der Messung14:45:00 Uhr9.80 °C
Temperatur (Minimum / Tiefstwert) und Uhrzeit der Messung05:00:00-2.90 °C
Errechneter Absolutwert der Temperaturschwankungen zwischen Tmin und Tmax des Tages12.70 K
Errechnete Tagesmitteltemperatur3.49479 °C
Gesamt - Niederschlag des Tages (in flüssiger Form)0.52 Liter / m²
Luftdruck (Maximum / Höchstwert) und Zeitpunkt der Messung23:45:00 Uhr1015.00 hPa
Luftdruck (Minimum / Tiefstwert) und Zeitpunkt der Messung00:45:00 Uhr1010.50 hPa
Errechneter Absolutwert der Luftdruckschwankungen des Tages4.50 hPa
Höchste gemessene Windgeschwindigkeit und Uhrzeit der Messung13:45:00 Uhr7.56 km/h
Errechnete Windhäufigkeit in Relation zu den Messwerten des Tages19.79167 %
Niedrigste Windkühle (Windchill) und Zeitpunkt der Messung05:00:00 Uhr-2.90 °C
Taupunkt (Maximum / Höchstwert) und Uhrzeit der Messung12:45:00 Uhr4.50 °C
Taupunkt (Minimum / Tiefstwert) und Uhrzeit der Messung05:00:00-4.10 °C
Anzahl der automatisch eingelesenen Messwerte 96

Detaillierte Wetter- und Klima- Messwerte für den 29.04.2017 in Holzhau im Erzgebirge (630m ü.NN)
ZeitTemperaturLuftdruckRel. LuftfeuchteWindWindrichtungWindchillTaupunktNiederschlag l/m²
23:45:002.10 °C1015.00 hPa84.00 %-0.30 °C0.52
23:30:002.30 °C1014.80 hPa83.00 %-0.30 °C0.52
23:15:002.40 °C1015.00 hPa84.00 %0.00 °C0.52
23:00:002.40 °C1014.90 hPa84.00 %0.00 °C0.52
22:45:002.50 °C1014.90 hPa83.00 %-0.10 °C0.52
22:30:002.60 °C1014.60 hPa82.00 %-0.20 °C0.52
22:15:002.90 °C1014.80 hPa81.00 %0.00 °C0.52
22:00:003.00 °C1014.80 hPa81.00 %0.10 °C0.52
21:45:003.10 °C1014.90 hPa80.00 %0.00 °C0.52
21:30:003.30 °C1015.00 hPa79.00 %0.00 °C0.52
21:15:003.50 °C1014.90 hPa78.00 %0.00 °C0.52
21:00:004.00 °C1014.90 hPa76.00 %0.20 °C0.52
20:45:004.30 °C1014.70 hPa76.00 %0.50 °C0.52
20:30:004.70 °C1014.70 hPa76.00 %0.80 °C0.52
20:15:004.90 °C1014.40 hPa76.00 %1.00 °C0.52
20:00:005.10 °C1014.30 hPa76.00 %1.20 °C0.52
19:45:005.50 °C1014.20 hPa75.00 %1.40 °C0.52
19:30:005.80 °C1014.00 hPa73.00 %1.30 °C0.52
19:15:006.10 °C1014.00 hPa72.00 %1.40 °C0.52
19:00:006.50 °C1013.80 hPa70.00 %1.40 °C0.52
18:45:006.60 °C1013.80 hPa69.00 %1.30 °C0.52
18:30:007.40 °C1013.50 hPa67.00 %1.70 °C0.52
18:15:008.60 °C1013.60 hPa65.00 %2.40 °C0.52
18:00:008.60 °C1013.20 hPa65.00 %2.88 km/hWNW8.60 °C2.40 °C0.52
17:45:008.90 °C1013.20 hPa65.00 %2.70 °C0.52
17:30:009.10 °C1013.30 hPa66.00 %1.44 km/hNNW9.10 °C3.10 °C0.52
17:15:008.90 °C1013.30 hPa64.00 %2.50 °C0.52
17:00:008.60 °C1013.20 hPa65.00 %5.76 km/hWNW7.90 °C2.40 °C0.52
16:45:008.80 °C1013.20 hPa63.00 %2.20 °C0.52
16:30:008.90 °C1013.10 hPa63.00 %2.30 °C0.52
16:15:008.90 °C1013.20 hPa64.00 %0.36 km/hWNW8.90 °C2.50 °C0.52
16:00:007.80 °C1013.30 hPa66.00 %1.90 °C0.52
15:45:007.30 °C1013.30 hPa65.00 %1.20 °C0.52
15:30:008.40 °C1013.30 hPa61.00 %1.30 °C0.52
15:15:009.50 °C1013.30 hPa62.00 %1.44 km/hNW9.50 °C2.60 °C0.52
15:00:009.40 °C1013.30 hPa63.00 %2.70 °C0.52
14:45:009.80 °C1013.30 hPa68.00 %5.40 km/hWNW9.40 °C4.20 °C0.52
14:30:009.40 °C1013.50 hPa66.00 %3.40 °C0.52
14:15:008.90 °C1013.60 hPa68.00 %6.48 km/hS8.10 °C3.30 °C0.52
14:00:008.40 °C1013.50 hPa70.00 %3.30 °C0.52
13:45:008.60 °C1013.60 hPa67.00 %7.56 km/hWNW7.50 °C2.80 °C0.52
13:30:008.90 °C1013.50 hPa70.00 %4.68 km/hN8.90 °C3.70 °C0.52
13:15:008.80 °C1013.30 hPa69.00 %3.40 °C0.52
13:00:009.80 °C1013.30 hPa64.00 %5.04 km/hN9.50 °C3.30 °C0.52
12:45:009.50 °C1013.30 hPa71.00 %6.12 km/hNNW8.90 °C4.50 °C0.52
12:30:008.60 °C1013.10 hPa71.00 %2.52 km/hW8.60 °C3.60 °C0.52
12:15:009.40 °C1013.10 hPa69.00 %1.80 km/hW9.40 °C4.00 °C0.52
12:00:009.10 °C1013.00 hPa73.00 %5.40 km/hWNW8.60 °C4.50 °C0.52
11:45:007.90 °C1013.20 hPa76.00 %3.90 °C0.52
11:30:007.90 °C1013.10 hPa76.00 %2.52 km/hSW7.90 °C3.90 °C0.52
11:15:007.40 °C1013.10 hPa80.00 %4.20 °C0.52
11:00:006.10 °C1013.00 hPa85.00 %3.80 °C0.52
10:45:004.40 °C1012.90 hPa87.00 %2.40 °C0.52
10:30:004.40 °C1012.90 hPa84.00 %1.90 °C 
10:15:004.50 °C1012.70 hPa83.00 %4.32 km/hN4.50 °C1.90 °C 
10:00:004.80 °C1012.60 hPa82.00 %2.16 km/hNNW4.80 °C2.00 °C 
09:45:005.50 °C1012.50 hPa78.00 %2.00 °C 
09:30:006.20 °C1012.10 hPa78.00 %2.70 °C 
09:15:006.40 °C1012.00 hPa81.00 %2.16 km/hWNW6.40 °C3.40 °C 
09:00:005.30 °C1011.90 hPa87.00 %3.30 °C 
08:45:004.30 °C1011.70 hPa93.00 %3.30 °C 
08:30:003.40 °C1011.60 hPa93.00 %2.40 °C 
08:15:002.60 °C1011.80 hPa93.00 %1.60 °C 
08:00:001.60 °C1011.70 hPa93.00 %0.60 °C 
07:45:000.90 °C1011.80 hPa93.00 %-0.10 °C 
07:30:000.30 °C1011.80 hPa94.00 %-0.50 °C 
07:15:00-1.10 °C1011.70 hPa93.00 %-2.20 °C 
07:00:00-2.10 °C1011.60 hPa92.00 %-3.40 °C 
06:45:00-2.40 °C1011.60 hPa92.00 %-3.70 °C 
06:30:00-2.40 °C1011.50 hPa92.00 %-3.70 °C 
06:15:00-2.40 °C1011.30 hPa92.00 %-3.70 °C 
06:00:00-2.50 °C1011.30 hPa92.00 %-3.80 °C 
05:45:00-2.60 °C1011.20 hPa92.00 %-3.90 °C 
05:30:00-2.70 °C1011.40 hPa92.00 %-3.90 °C 
05:15:00-2.70 °C1011.40 hPa92.00 %-3.90 °C 
05:00:00-2.90 °C1011.30 hPa92.00 %-4.10 °C 
04:45:00-2.90 °C1011.30 hPa92.00 %-4.10 °C 
04:30:00-2.70 °C1011.40 hPa92.00 %-3.90 °C 
04:15:00-2.50 °C1011.30 hPa92.00 %-3.80 °C 
04:00:00-2.40 °C1011.10 hPa92.00 %-3.70 °C 
03:45:00-2.50 °C1011.00 hPa92.00 %-3.80 °C 
03:30:00-2.60 °C1011.20 hPa92.00 %-3.90 °C 
03:15:00-2.60 °C1011.00 hPa91.00 %-4.00 °C 
03:00:00-2.40 °C1011.00 hPa91.00 %-3.80 °C 
02:45:00-2.40 °C1010.90 hPa91.00 %1.80 km/hSO-2.40 °C-3.80 °C 
02:30:00-2.20 °C1010.80 hPa91.00 %-3.60 °C 
02:15:00-2.10 °C1010.80 hPa91.00 %-3.50 °C 
02:00:00-2.10 °C1010.70 hPa91.00 %-3.50 °C 
01:45:00-2.10 °C1010.70 hPa91.00 %-3.50 °C 
01:30:00-2.20 °C1010.70 hPa91.00 %-3.60 °C 
01:15:00-2.10 °C1010.70 hPa91.00 %-3.50 °C 
01:00:00-2.20 °C1010.60 hPa90.00 %-3.80 °C 
00:45:00-2.30 °C1010.50 hPa90.00 %-3.90 °C 
00:30:00-2.20 °C1010.60 hPa90.00 %-3.80 °C 
00:15:00-2.10 °C1010.60 hPa90.00 %-3.70 °C 
00:00:00-1.90 °C1010.80 hPa89.00 %-3.70 °C 

Permanenter Link zu dieser Seite: Wetter im Erzgebirge am 29.04.2017
Performance-Info: Die Erstellung der Seite / Statistik(en) / Tabelle(n) erforderte 5 Datenbankserver-Abfrage(n) und dauerte 101 Millisekunden. (Dieser Messwert ist von der Gesamt-Auslastung des Servers abhängig.)
Erzgebirge - Wetter | Erzgebirge - Wetter (Mobilgeräte) | Komplette Klimadatenbank